Report METAR

 

LIMJ -
Dati ricevuti: 28/11/2021 13:20
Few Clouds
Few Clouds
 Vento da Variabile
Vento: Variabile 9 km/h, Raffica: 28 km/h
Temperatura: 13°C
P.to Rugiada: -2°C
Umidità: 36%
Barometro: 992 hPa
Nuvole: Few Clouds
Visibility: 10 km
Cloud details: Few Clouds 975 m
2021/11/28 12:20 LIMJ 281220Z VRB05G15KT 9999 FEW032 13/M02 Q0992